createdAt,value
2023-02-11T00:01:28.731Z,6.28
2023-02-11T00:03:56.823Z,6.47
2023-02-11T00:06:24.521Z,7.00
2023-02-11T00:08:52.013Z,5.75
2023-02-11T00:11:20.069Z,6.50
2023-02-11T00:13:47.335Z,5.70
2023-02-11T00:16:16.179Z,5.60
2023-02-11T00:18:43.895Z,6.78
2023-02-11T00:21:12.460Z,5.70
2023-02-11T00:23:39.890Z,5.60
2023-02-11T00:26:14.570Z,6.70
2023-02-11T00:28:43.512Z,7.35
2023-02-11T00:31:11.780Z,6.22
2023-02-11T00:33:39.202Z,6.22
2023-02-11T00:36:07.744Z,7.80
2023-02-11T00:38:35.039Z,5.43
2023-02-11T00:41:02.408Z,8.95
2023-02-11T00:43:29.639Z,6.30
2023-02-11T00:45:57.054Z,5.88
2023-02-11T00:48:24.321Z,6.22
2023-02-11T00:50:51.605Z,6.00
2023-02-11T00:53:18.890Z,5.78
2023-02-11T00:55:46.276Z,6.53
2023-02-11T00:58:13.547Z,5.35
2023-02-11T01:03:11.077Z,5.72
2023-02-11T01:05:38.507Z,5.93
2023-02-11T01:08:06.037Z,6.88
2023-02-11T01:10:33.543Z,8.18
2023-02-11T01:13:01.702Z,6.15
2023-02-11T01:15:29.169Z,6.97
2023-02-11T01:17:57.301Z,6.03
2023-02-11T01:20:26.063Z,6.80
2023-02-11T01:22:53.352Z,6.45
2023-02-11T01:25:20.634Z,7.55
2023-02-11T01:27:47.958Z,7.18
2023-02-11T01:30:15.396Z,7.90
2023-02-11T01:32:42.651Z,6.35
2023-02-11T01:35:09.931Z,9.80
2023-02-11T01:37:37.394Z,6.25
2023-02-11T01:40:06.052Z,6.07
2023-02-11T01:42:35.074Z,6.82
2023-02-11T01:45:02.939Z,6.38
2023-02-11T01:47:30.170Z,6.53
2023-02-11T01:50:01.261Z,7.30
2023-02-11T01:52:31.903Z,6.65
2023-02-11T01:55:25.687Z,8.20
2023-02-11T01:57:56.361Z,6.70
2023-02-11T02:00:37.582Z,7.45
2023-02-11T02:03:13.748Z,6.18
2023-02-11T02:05:43.917Z,8.18
2023-02-11T02:08:20.160Z,7.82
2023-02-11T02:10:48.930Z,6.53
2023-02-11T02:13:17.443Z,7.18
2023-02-11T02:15:54.591Z,6.95
2023-02-11T02:18:40.105Z,7.20
2023-02-11T02:21:26.271Z,6.75
2023-02-11T02:24:14.174Z,7.50
2023-02-11T02:26:41.489Z,6.97
2023-02-11T02:29:28.168Z,8.50
2023-02-11T02:32:13.964Z,8.32
2023-02-11T02:34:44.008Z,9.25
2023-02-11T02:37:16.008Z,7.55
2023-02-11T02:39:44.135Z,8.02
2023-02-11T02:42:11.380Z,8.20
2023-02-11T02:44:38.673Z,8.48
2023-02-11T02:47:05.968Z,8.57
2023-02-11T02:49:33.236Z,9.68
2023-02-11T02:52:06.362Z,10.30
2023-02-11T02:54:33.976Z,9.80
2023-02-11T02:57:10.551Z,8.30
2023-02-11T02:59:50.216Z,9.15
2023-02-11T03:02:26.469Z,9.18
2023-02-11T03:05:05.895Z,8.55
2023-02-11T03:07:38.451Z,9.40
2023-02-11T03:10:08.553Z,8.77
2023-02-11T03:12:36.612Z,10.18
2023-02-11T03:15:04.538Z,9.05
2023-02-11T03:17:32.563Z,10.85
2023-02-11T03:20:00.410Z,9.00
2023-02-11T03:22:47.979Z,10.18
2023-02-11T03:25:15.404Z,10.77
2023-02-11T03:27:53.141Z,11.00
2023-02-11T03:30:27.575Z,9.85
2023-02-11T03:33:15.545Z,10.50
2023-02-11T03:35:46.196Z,10.32
2023-02-11T03:38:16.758Z,10.77
2023-02-11T03:40:45.573Z,11.63
2023-02-11T03:43:18.313Z,11.63
2023-02-11T03:45:46.714Z,11.20
2023-02-11T03:48:17.736Z,9.60
2023-02-11T03:50:46.629Z,11.88
2023-02-11T03:53:14.917Z,9.43
2023-02-11T03:55:43.812Z,12.32
2023-02-11T03:58:11.203Z,8.80
2023-02-11T04:00:41.029Z,10.55
2023-02-11T04:03:09.152Z,10.50
2023-02-11T04:05:36.367Z,10.43
2023-02-11T04:08:03.961Z,10.68
2023-02-11T04:10:31.308Z,9.85
2023-02-11T04:12:58.575Z,10.48
2023-02-11T04:15:26.147Z,10.63
2023-02-11T04:17:53.509Z,10.25
2023-02-11T04:20:20.798Z,11.10
2023-02-11T04:22:48.060Z,10.82
2023-02-11T04:25:15.329Z,10.32
2023-02-11T04:27:42.579Z,12.48
2023-02-11T04:30:10.051Z,12.18
2023-02-11T04:32:37.625Z,12.18
2023-02-11T04:35:05.210Z,12.40
2023-02-11T04:37:32.471Z,11.55
2023-02-11T04:39:59.691Z,12.43
2023-02-11T04:42:27.005Z,11.52
2023-02-11T04:44:54.293Z,12.30
2023-02-11T04:47:21.581Z,11.27
2023-02-11T04:49:48.812Z,12.00
2023-02-11T04:52:16.251Z,12.57
2023-02-11T04:54:43.500Z,15.45
2023-02-11T04:57:10.727Z,12.52
2023-02-11T04:59:38.015Z,13.57
2023-02-11T05:02:05.341Z,13.98
2023-02-11T05:04:32.642Z,15.13
2023-02-11T05:06:59.922Z,15.77
2023-02-11T05:09:27.248Z,14.77
2023-02-11T05:11:54.472Z,14.98
2023-02-11T05:14:21.772Z,14.60
2023-02-11T05:16:49.072Z,15.02
2023-02-11T05:19:16.379Z,16.40
2023-02-11T05:21:56.656Z,14.05
2023-02-11T05:24:28.857Z,15.68
2023-02-11T05:26:56.172Z,17.67
2023-02-11T05:29:23.388Z,17.50
2023-02-11T05:31:50.634Z,17.33
2023-02-11T05:34:17.857Z,15.27
2023-02-11T05:36:45.106Z,16.13
2023-02-11T05:39:12.362Z,18.00
2023-02-11T05:41:39.611Z,17.45
2023-02-11T05:44:06.860Z,17.98
2023-02-11T05:46:34.175Z,15.25
2023-02-11T05:49:01.430Z,16.63
2023-02-11T05:51:28.710Z,16.13
2023-02-11T05:53:55.940Z,16.02
2023-02-11T05:56:23.171Z,16.08
2023-02-11T05:58:50.466Z,17.85
2023-02-11T06:01:17.734Z,18.55
2023-02-11T06:03:45.042Z,18.40
2023-02-11T06:06:13.210Z,18.95
2023-02-11T06:08:41.024Z,19.73
2023-02-11T06:11:08.288Z,17.90
2023-02-11T06:13:36.257Z,18.33
2023-02-11T06:16:03.839Z,19.33
2023-02-11T06:18:32.909Z,23.17
2023-02-11T06:21:00.470Z,20.67
2023-02-11T06:23:30.240Z,24.25
2023-02-11T06:26:01.824Z,20.38
2023-02-11T06:28:31.385Z,20.88
2023-02-11T06:30:59.260Z,21.08
2023-02-11T06:33:26.575Z,21.20
2023-02-11T06:35:53.910Z,25.08
2023-02-11T06:38:21.227Z,24.63
2023-02-11T06:40:49.348Z,21.95
2023-02-11T06:43:17.252Z,23.20
2023-02-11T06:45:44.529Z,23.40
2023-02-11T06:48:11.950Z,23.48
2023-02-11T06:50:39.196Z,23.70
2023-02-11T06:53:06.434Z,22.70
2023-02-11T06:55:35.493Z,22.35
2023-02-11T06:58:02.836Z,25.33
2023-02-11T07:00:30.267Z,24.60
2023-02-11T07:02:57.759Z,26.42
2023-02-11T07:05:25.097Z,27.23
2023-02-11T07:07:52.399Z,26.30
2023-02-11T07:10:19.690Z,30.20
2023-02-11T07:12:47.115Z,25.35
2023-02-11T07:15:14.458Z,29.50
2023-02-11T07:17:41.756Z,27.80
2023-02-11T07:20:09.605Z,28.90
2023-02-11T07:22:37.354Z,28.90
2023-02-11T07:25:04.750Z,25.25
2023-02-11T07:27:32.042Z,29.75
2023-02-11T07:29:59.292Z,28.92
2023-02-11T07:32:26.528Z,28.02
2023-02-11T07:34:53.820Z,30.13
2023-02-11T07:37:21.189Z,30.77
2023-02-11T07:39:48.461Z,27.42
2023-02-11T07:42:15.879Z,27.65
2023-02-11T07:44:43.426Z,28.17
2023-02-11T07:47:10.734Z,26.30
2023-02-11T07:49:38.003Z,29.50
2023-02-11T07:52:05.281Z,26.58
2023-02-11T07:54:32.568Z,27.30
2023-02-11T07:57:01.526Z,27.02
2023-02-11T07:59:28.879Z,24.55
2023-02-11T08:01:56.103Z,28.25
2023-02-11T08:04:23.701Z,26.05
2023-02-11T08:06:52.831Z,25.90
2023-02-11T08:09:20.132Z,26.73
2023-02-11T08:11:47.326Z,24.80
2023-02-11T08:14:14.625Z,24.05
2023-02-11T08:16:42.086Z,24.88
2023-02-11T08:19:12.460Z,28.30
2023-02-11T08:21:40.112Z,26.10
2023-02-11T08:24:07.653Z,23.02
2023-02-11T08:26:35.830Z,26.25
2023-02-11T08:29:04.243Z,25.95
2023-02-11T08:31:36.529Z,24.67
2023-02-11T08:34:04.350Z,27.10
2023-02-11T08:36:34.248Z,23.33
2023-02-11T08:39:17.432Z,22.88
2023-02-11T08:41:45.879Z,25.90
2023-02-11T08:44:13.267Z,26.27
2023-02-11T08:46:40.558Z,24.02
2023-02-11T08:49:07.979Z,23.95
2023-02-11T08:51:35.299Z,26.40
2023-02-11T08:54:02.881Z,23.17
2023-02-11T08:56:32.399Z,24.80
2023-02-11T08:58:59.730Z,23.92
2023-02-11T09:01:29.037Z,22.58
2023-02-11T09:06:24.883Z,22.65
2023-02-11T09:08:53.660Z,22.10
2023-02-11T09:11:22.845Z,22.88
2023-02-11T09:13:52.601Z,24.00
2023-02-11T09:16:22.622Z,21.45
2023-02-11T09:18:50.371Z,22.95
2023-02-11T09:21:18.318Z,23.08
2023-02-11T09:23:47.743Z,22.27
2023-02-11T09:26:17.137Z,22.20
2023-02-11T09:31:13.223Z,24.70
2023-02-11T09:33:42.220Z,21.35
2023-02-11T09:36:10.204Z,19.75
2023-02-11T09:38:38.292Z,20.83
2023-02-11T09:41:08.416Z,19.10
2023-02-11T09:43:44.303Z,18.85
2023-02-11T09:46:15.445Z,21.73
2023-02-11T09:48:44.609Z,21.00
2023-02-11T09:51:16.691Z,19.83
2023-02-11T09:53:44.085Z,17.63
2023-02-11T09:56:12.937Z,16.73
2023-02-11T09:58:41.552Z,18.40
2023-02-11T10:01:29.130Z,18.70
2023-02-11T10:03:56.399Z,16.35
2023-02-11T10:06:36.609Z,17.75
2023-02-11T10:09:13.433Z,15.85
2023-02-11T10:11:46.748Z,17.73
2023-02-11T10:14:26.282Z,13.85
2023-02-11T10:17:06.524Z,15.82
2023-02-11T10:19:39.881Z,15.25
2023-02-11T10:22:07.108Z,15.48
2023-02-11T10:24:35.481Z,14.55
2023-02-11T10:27:06.488Z,12.30
2023-02-11T10:29:39.361Z,15.10
2023-02-11T10:32:14.232Z,13.13
2023-02-11T10:34:42.674Z,14.38
2023-02-11T10:37:12.731Z,12.97
2023-02-11T10:39:41.540Z,14.10
2023-02-11T10:42:12.257Z,13.23
2023-02-11T10:44:40.869Z,13.43
2023-02-11T10:47:18.652Z,14.07
2023-02-11T10:49:47.353Z,14.20
2023-02-11T10:52:15.804Z,12.55
2023-02-11T10:54:43.368Z,12.53
2023-02-11T10:57:17.126Z,13.02
2023-02-11T10:59:44.836Z,11.55
2023-02-11T11:02:32.036Z,12.60
2023-02-11T11:05:01.532Z,11.93
2023-02-11T11:07:30.589Z,12.00
2023-02-11T11:09:59.676Z,11.68
2023-02-11T11:12:42.158Z,11.50
2023-02-11T11:15:19.823Z,10.80
2023-02-11T11:17:47.363Z,10.10
2023-02-11T11:20:36.340Z,9.68
2023-02-11T11:23:16.101Z,10.35
2023-02-11T11:25:46.050Z,10.27
2023-02-11T11:28:24.619Z,10.25
2023-02-11T11:30:53.578Z,11.02
2023-02-11T11:36:03.613Z,11.25
2023-02-11T11:38:33.434Z,8.80
2023-02-11T11:41:19.411Z,9.90
2023-02-11T11:44:00.468Z,9.80
2023-02-11T11:46:47.351Z,10.32
2023-02-11T11:49:29.281Z,9.73
2023-02-11T11:52:10.910Z,8.55
2023-02-11T11:54:39.265Z,9.50
2023-02-11T11:57:12.978Z,8.85
2023-02-11T11:59:40.347Z,9.45
2023-02-11T12:02:16.646Z,10.07
2023-02-11T12:04:49.909Z,9.32
2023-02-11T12:07:17.158Z,9.57
2023-02-11T12:09:47.482Z,9.50
2023-02-11T12:12:17.930Z,9.52
2023-02-11T12:14:54.636Z,8.80
2023-02-11T12:17:22.002Z,8.77
2023-02-11T12:19:52.876Z,10.68
2023-02-11T12:22:43.148Z,10.27
2023-02-11T12:25:10.467Z,9.02
2023-02-11T12:27:49.787Z,9.30
2023-02-11T12:30:38.427Z,9.85
2023-02-11T12:33:24.278Z,8.60
2023-02-11T12:35:57.352Z,8.80
2023-02-11T12:38:35.863Z,10.73
2023-02-11T12:41:07.228Z,10.38
2023-02-11T12:43:37.591Z,10.07
2023-02-11T12:46:08.304Z,9.30
2023-02-11T12:48:54.350Z,9.25
2023-02-11T12:51:43.380Z,8.15
2023-02-11T12:54:27.478Z,8.95
2023-02-11T12:56:59.241Z,8.80
2023-02-11T12:59:39.941Z,8.60
2023-02-11T13:02:14.915Z,8.75
2023-02-11T13:04:47.084Z,7.78
2023-02-11T13:07:22.317Z,8.52
2023-02-11T13:09:52.078Z,7.38
2023-02-11T13:12:38.856Z,8.27
2023-02-11T13:15:08.124Z,7.40
2023-02-11T13:20:08.514Z,7.43
2023-02-11T13:22:41.372Z,9.02
2023-02-11T13:25:14.583Z,7.57
2023-02-11T13:27:42.847Z,8.15
2023-02-11T13:30:11.841Z,8.45
2023-02-11T13:33:11.449Z,9.20
2023-02-11T13:35:44.295Z,6.78
2023-02-11T13:38:21.939Z,7.13
2023-02-11T13:41:06.856Z,6.70
2023-02-11T13:43:35.800Z,6.22
2023-02-11T13:48:32.388Z,6.90
2023-02-11T13:51:05.764Z,6.82
2023-02-11T13:53:47.064Z,6.80
2023-02-11T13:56:24.778Z,6.90
2023-02-11T13:58:52.648Z,7.97
2023-02-11T14:02:12.481Z,6.43
2023-02-11T14:05:18.689Z,8.43
2023-02-11T14:08:23.354Z,6.75
2023-02-11T14:10:52.299Z,5.78
2023-02-11T14:13:35.878Z,7.00
2023-02-11T14:16:09.423Z,6.93
2023-02-11T14:18:37.322Z,7.65
2023-02-11T14:21:20.582Z,6.07
2023-02-11T14:23:47.926Z,6.38
2023-02-11T14:26:21.186Z,6.40
2023-02-11T14:29:07.941Z,5.60
2023-02-11T14:31:39.619Z,6.18
2023-02-11T14:34:25.524Z,6.80
2023-02-11T14:36:52.924Z,6.32
2023-02-11T14:39:30.831Z,6.70
2023-02-11T14:41:58.202Z,6.28
2023-02-11T14:44:29.115Z,6.30
2023-02-11T14:46:56.600Z,6.18
2023-02-11T14:49:27.286Z,6.13
2023-02-11T14:52:07.442Z,6.47
2023-02-11T14:54:35.547Z,6.82
2023-02-11T14:57:12.502Z,5.80
2023-02-11T14:59:40.329Z,7.53
2023-02-11T15:02:24.199Z,6.25
2023-02-11T15:04:53.303Z,6.32
2023-02-11T15:07:24.954Z,6.05
2023-02-11T15:09:53.454Z,5.93
2023-02-11T15:12:27.937Z,7.40
2023-02-11T15:14:59.990Z,7.03
2023-02-11T15:17:30.173Z,5.93
2023-02-11T15:19:59.033Z,6.78
2023-02-11T15:22:27.864Z,6.68
2023-02-11T15:25:16.659Z,5.97
2023-02-11T15:30:23.575Z,6.10
2023-02-11T15:32:51.900Z,6.95
2023-02-11T15:35:19.566Z,6.70
2023-02-11T15:37:48.963Z,6.90
2023-02-11T15:40:25.709Z,7.65
2023-02-11T15:42:56.253Z,7.28
2023-02-11T15:45:39.352Z,6.35
2023-02-11T15:48:09.298Z,5.82
2023-02-11T15:50:37.366Z,7.85
2023-02-11T15:53:12.756Z,7.80
2023-02-11T15:55:41.688Z,9.10
2023-02-11T15:58:09.643Z,7.90
2023-02-11T16:00:39.044Z,7.57
2023-02-11T16:03:06.349Z,7.75
2023-02-11T16:05:37.954Z,6.53
2023-02-11T16:08:35.501Z,7.22
2023-02-11T16:11:08.772Z,7.22
2023-02-11T16:13:45.290Z,8.23
2023-02-11T16:16:32.489Z,7.00
2023-02-11T16:19:05.357Z,8.57
2023-02-11T16:21:39.834Z,8.02
2023-02-11T16:24:18.678Z,7.25
2023-02-11T16:26:53.342Z,7.93
2023-02-11T16:29:24.394Z,7.22
2023-02-11T16:31:52.981Z,6.80
2023-02-11T16:34:24.711Z,8.98
2023-02-11T16:36:52.644Z,7.32
2023-02-11T16:39:24.250Z,7.68
2023-02-11T16:41:51.983Z,7.10
2023-02-11T16:44:20.361Z,6.63
2023-02-11T16:46:47.797Z,8.63
2023-02-11T16:49:28.756Z,7.80
2023-02-11T16:52:01.067Z,7.78
2023-02-11T16:54:28.925Z,11.20
2023-02-11T16:56:56.698Z,11.25
2023-02-11T16:59:24.124Z,10.43
2023-02-11T17:01:52.581Z,8.50
2023-02-11T17:04:21.312Z,10.50
2023-02-11T17:06:48.651Z,9.98
2023-02-11T17:09:19.825Z,7.85
2023-02-11T17:11:47.133Z,7.43
2023-02-11T17:14:14.497Z,7.05
2023-02-11T17:16:42.137Z,7.28
2023-02-11T17:19:12.748Z,7.38
2023-02-11T17:21:43.376Z,10.23
2023-02-11T17:24:11.236Z,8.23
2023-02-11T17:26:39.031Z,9.25
2023-02-11T17:29:07.099Z,9.52
2023-02-11T17:31:34.542Z,7.50
2023-02-11T17:34:02.107Z,8.32
2023-02-11T17:36:31.321Z,8.68
2023-02-11T17:38:58.867Z,7.97
2023-02-11T17:41:26.564Z,9.20
2023-02-11T17:43:54.227Z,8.65
2023-02-11T17:46:21.464Z,9.32
2023-02-11T17:48:49.180Z,8.70
2023-02-11T17:51:24.786Z,8.82
2023-02-11T17:53:52.288Z,10.40
2023-02-11T17:56:19.625Z,9.00
2023-02-11T17:58:46.917Z,10.23
2023-02-11T18:01:14.220Z,10.23
2023-02-11T18:03:41.694Z,9.32
2023-02-11T18:06:08.997Z,9.32
2023-02-11T18:08:36.441Z,10.90
2023-02-11T18:11:03.739Z,8.73
2023-02-11T18:13:32.085Z,10.83
2023-02-11T18:16:03.482Z,8.85
2023-02-11T18:18:30.897Z,10.05
2023-02-11T18:21:02.954Z,9.07
2023-02-11T18:23:30.534Z,9.73
2023-02-11T18:25:57.861Z,9.98
2023-02-11T18:28:25.191Z,12.75
2023-02-11T18:30:59.371Z,9.77
2023-02-11T18:33:26.875Z,10.43
2023-02-11T18:35:54.394Z,10.85
2023-02-11T18:38:22.949Z,9.55
2023-02-11T18:40:50.563Z,11.27
2023-02-11T18:43:18.081Z,10.13
2023-02-11T18:45:46.122Z,9.23
2023-02-11T18:48:13.809Z,9.63
2023-02-11T18:50:42.575Z,8.80
2023-02-11T18:53:13.998Z,11.13
2023-02-11T18:55:42.737Z,9.65
2023-02-11T18:58:10.445Z,9.73
2023-02-11T19:00:40.330Z,10.00
2023-02-11T19:03:07.650Z,10.00
2023-02-11T19:05:41.724Z,9.38
2023-02-11T19:08:09.215Z,8.30
2023-02-11T19:10:39.723Z,8.65
2023-02-11T19:13:07.114Z,9.02
2023-02-11T19:15:34.336Z,9.57
2023-02-11T19:18:01.758Z,8.63
2023-02-11T19:20:33.281Z,10.05
2023-02-11T19:23:00.891Z,8.48
2023-02-11T19:25:28.434Z,9.38
2023-02-11T19:27:56.954Z,9.38
2023-02-11T19:30:24.397Z,7.50
2023-02-11T19:32:52.979Z,9.45
2023-02-11T19:35:20.694Z,9.02
2023-02-11T19:37:48.076Z,9.02
2023-02-11T19:40:16.615Z,10.10
2023-02-11T19:42:44.138Z,9.82
2023-02-11T19:45:11.479Z,10.27
2023-02-11T19:47:38.865Z,11.57
2023-02-11T19:50:06.602Z,9.35
2023-02-11T19:52:33.913Z,10.02
2023-02-11T19:55:01.281Z,11.15
2023-02-11T19:57:28.558Z,9.40
2023-02-11T19:59:56.975Z,9.52
2023-02-11T20:02:24.237Z,10.93
2023-02-11T20:04:51.539Z,10.18
2023-02-11T20:07:18.797Z,10.27
2023-02-11T20:09:46.086Z,11.55
2023-02-11T20:12:13.761Z,12.20
2023-02-11T20:14:41.137Z,10.07
2023-02-11T20:17:09.113Z,10.77
2023-02-11T20:19:36.519Z,11.18
2023-02-11T20:22:03.760Z,11.80
2023-02-11T20:24:31.103Z,11.75
2023-02-11T20:26:58.885Z,11.93
2023-02-11T20:29:26.425Z,11.05
2023-02-11T20:31:54.149Z,11.32
2023-02-11T20:34:22.184Z,10.90
2023-02-11T20:36:52.308Z,11.13
2023-02-11T20:39:21.898Z,11.82
2023-02-11T20:41:49.389Z,10.68
2023-02-11T20:44:16.858Z,10.27
2023-02-11T20:46:48.450Z,12.05
2023-02-11T20:49:17.139Z,11.13
2023-02-11T20:51:45.022Z,11.07
2023-02-11T20:54:13.190Z,11.75
2023-02-11T20:56:45.553Z,11.27
2023-02-11T20:59:15.136Z,11.23
2023-02-11T21:01:43.843Z,12.23
2023-02-11T21:04:15.740Z,13.30
2023-02-11T21:06:44.658Z,12.90
2023-02-11T21:09:13.825Z,14.38
2023-02-11T21:11:41.496Z,13.13
2023-02-11T21:14:08.836Z,13.57
2023-02-11T21:16:36.100Z,13.70
2023-02-11T21:19:03.474Z,14.13
2023-02-11T21:21:31.137Z,13.45
2023-02-11T21:23:58.914Z,14.60
2023-02-11T21:26:26.357Z,15.00
2023-02-11T21:28:55.154Z,15.35
2023-02-11T21:31:23.849Z,15.35
2023-02-11T21:33:51.661Z,14.80
2023-02-11T21:36:19.077Z,15.88
2023-02-11T21:38:46.358Z,18.42
2023-02-11T21:41:13.674Z,15.57
2023-02-11T21:43:41.023Z,15.88
2023-02-11T21:46:13.543Z,14.73
2023-02-11T21:48:41.101Z,15.82
2023-02-11T21:51:10.270Z,16.27
2023-02-11T21:53:37.561Z,16.20
2023-02-11T21:56:06.421Z,14.98
2023-02-11T21:58:33.725Z,14.45
2023-02-11T22:01:01.013Z,15.23
2023-02-11T22:03:28.717Z,15.27
2023-02-11T22:05:56.389Z,17.05
2023-02-11T22:08:23.846Z,18.17
2023-02-11T22:10:51.082Z,16.05
2023-02-11T22:13:18.368Z,15.32
2023-02-11T22:15:45.679Z,15.05
2023-02-11T22:18:13.339Z,14.82
2023-02-11T22:20:40.615Z,15.60
2023-02-11T22:23:07.842Z,16.92
2023-02-11T22:25:37.140Z,16.33
2023-02-11T22:30:31.616Z,18.17
2023-02-11T22:32:59.651Z,15.90
2023-02-11T22:35:26.934Z,15.55
2023-02-11T22:37:54.699Z,16.27
2023-02-11T22:40:22.722Z,18.52
2023-02-11T22:42:49.974Z,18.33
2023-02-11T22:45:17.381Z,20.00
2023-02-11T22:47:44.602Z,19.10
2023-02-11T22:50:11.976Z,18.52
2023-02-11T22:52:39.236Z,17.88
2023-02-11T22:55:07.093Z,19.05
2023-02-11T22:57:34.331Z,18.33
2023-02-11T23:00:01.669Z,18.30
2023-02-11T23:02:29.003Z,17.80
2023-02-11T23:04:56.377Z,19.05
2023-02-11T23:07:23.719Z,18.63
2023-02-11T23:09:50.927Z,19.27
2023-02-11T23:12:18.206Z,18.35
2023-02-11T23:14:45.535Z,19.40
2023-02-11T23:17:12.830Z,17.13
2023-02-11T23:19:40.223Z,16.98
2023-02-11T23:22:07.541Z,17.67
2023-02-11T23:24:35.862Z,17.83
2023-02-11T23:27:03.545Z,17.02
2023-02-11T23:29:30.753Z,17.13
2023-02-11T23:31:59.022Z,16.85
2023-02-11T23:34:26.427Z,18.93
2023-02-11T23:36:53.809Z,17.35
2023-02-11T23:39:21.161Z,19.00
2023-02-11T23:41:48.401Z,17.38
2023-02-11T23:44:15.818Z,18.23
2023-02-11T23:46:43.133Z,19.25
2023-02-11T23:49:10.480Z,16.23
2023-02-11T23:51:37.715Z,16.05
2023-02-11T23:54:04.997Z,18.40
2023-02-11T23:56:32.288Z,16.88
2023-02-11T23:58:59.752Z,16.52
